sensor_id;sensor_type;location;lat;lon;timestamp;pressure;altitude;pressure_sealevel;temperature;humidity
69184;BME280;56291;53.960;27.550;2023-09-19T05:13:51;98787.06;;;13.19;62.06
69184;BME280;56291;53.960;27.550;2023-09-19T05:16:18;98782.13;;;13.24;62.69
69184;BME280;56291;53.960;27.550;2023-09-19T05:18:45;98791.50;;;13.27;63.51
69184;BME280;56291;53.960;27.550;2023-09-19T05:21:11;98791.84;;;13.32;63.39
69184;BME280;56291;53.960;27.550;2023-09-19T05:23:40;98785.28;;;13.36;62.52
69184;BME280;56291;53.960;27.550;2023-09-19T05:26:07;98786.75;;;13.39;63.19
69184;BME280;56291;53.960;27.550;2023-09-19T05:28:33;98781.63;;;13.45;62.85
69184;BME280;56291;53.960;27.550;2023-09-19T05:31:01;98782.13;;;13.49;62.55
69184;BME280;56291;53.960;27.550;2023-09-19T05:33:30;98781.47;;;13.55;62.20
69184;BME280;56291;53.960;27.550;2023-09-19T05:35:57;98781.75;;;13.60;62.65
69184;BME280;56291;53.960;27.550;2023-09-19T05:38:23;98778.78;;;13.63;62.26
69184;BME280;56291;53.960;27.550;2023-09-19T05:40:53;98778.13;;;13.69;62.71
69184;BME280;56291;53.960;27.550;2023-09-19T05:43:20;98768.69;;;13.75;62.21
69184;BME280;56291;53.960;27.550;2023-09-19T05:45:46;98767.34;;;13.79;62.27
69184;BME280;56291;53.960;27.550;2023-09-19T05:48:13;98767.00;;;13.82;61.86
69184;BME280;56291;53.960;27.550;2023-09-19T05:50:42;98763.03;;;13.86;61.97
69184;BME280;56291;53.960;27.550;2023-09-19T05:53:23;98764.34;;;13.91;61.79
69184;BME280;56291;53.960;27.550;2023-09-19T05:55:58;98760.34;;;13.95;61.96
69184;BME280;56291;53.960;27.550;2023-09-19T05:58:27;98769.25;;;14.02;61.63
69184;BME280;56291;53.960;27.550;2023-09-19T06:00:53;98774.00;;;14.07;61.66
69184;BME280;56291;53.960;27.550;2023-09-19T06:03:19;98766.88;;;14.15;61.56
69184;BME280;56291;53.960;27.550;2023-09-19T06:05:49;98767.34;;;14.19;60.97
69184;BME280;56291;53.960;27.550;2023-09-19T06:08:17;98771.13;;;14.25;60.92
69184;BME280;56291;53.960;27.550;2023-09-19T06:10:43;98760.69;;;14.31;60.84
69184;BME280;56291;53.960;27.550;2023-09-19T06:13:09;98768.25;;;14.34;60.80
69184;BME280;56291;53.960;27.550;2023-09-19T06:15:36;98763.09;;;14.41;61.39
69184;BME280;56291;53.960;27.550;2023-09-19T06:18:03;98764.06;;;14.48;60.91
69184;BME280;56291;53.960;27.550;2023-09-19T06:20:31;98763.34;;;14.54;60.78
69184;BME280;56291;53.960;27.550;2023-09-19T06:22:59;98764.97;;;14.64;61.19
69184;BME280;56291;53.960;27.550;2023-09-19T06:25:25;98763.09;;;14.72;60.72
69184;BME280;56291;53.960;27.550;2023-09-19T06:27:54;98768.03;;;14.76;60.22
69184;BME280;56291;53.960;27.550;2023-09-19T06:30:22;98761.06;;;14.83;60.42
69184;BME280;56291;53.960;27.550;2023-09-19T06:32:59;98763.16;;;14.87;60.32
69184;BME280;56291;53.960;27.550;2023-09-19T06:35:26;98760.81;;;14.93;60.62
69184;BME280;56291;53.960;27.550;2023-09-19T06:38:22;98758.72;;;15.03;60.17
69184;BME280;56291;53.960;27.550;2023-09-19T06:41:03;98747.78;;;15.06;59.74
69184;BME280;56291;53.960;27.550;2023-09-19T06:43:33;98755.66;;;15.14;59.86
69184;BME280;56291;53.960;27.550;2023-09-19T06:46:03;98747.53;;;15.16;59.72
69184;BME280;56291;53.960;27.550;2023-09-19T06:48:30;98755.09;;;15.19;59.95
69184;BME280;56291;53.960;27.550;2023-09-19T06:50:57;98740.31;;;15.24;59.65
69184;BME280;56291;53.960;27.550;2023-09-19T06:53:24;98724.41;;;15.24;59.63
69184;BME280;56291;53.960;27.550;2023-09-19T06:55:51;98733.66;;;15.29;59.41
69184;BME280;56291;53.960;27.550;2023-09-19T06:58:17;98735.31;;;15.30;59.41
69184;BME280;56291;53.960;27.550;2023-09-19T07:00:43;98733.31;;;15.32;59.39
69184;BME280;56291;53.960;27.550;2023-09-19T07:03:10;98732.41;;;15.39;59.28
69184;BME280;56291;53.960;27.550;2023-09-19T07:05:40;98732.03;;;15.42;59.20
69184;BME280;56291;53.960;27.550;2023-09-19T07:08:07;98734.16;;;15.47;59.31
69184;BME280;56291;53.960;27.550;2023-09-19T07:10:34;98735.41;;;15.51;59.26
69184;BME280;56291;53.960;27.550;2023-09-19T07:13:04;98741.19;;;15.55;58.96
69184;BME280;56291;53.960;27.550;2023-09-19T07:15:35;98736.53;;;15.57;59.17
69184;BME280;56291;53.960;27.550;2023-09-19T07:18:05;98731.50;;;15.62;59.25
69184;BME280;56291;53.960;27.550;2023-09-19T07:20:32;98725.19;;;15.63;58.85
69184;BME280;56291;53.960;27.550;2023-09-19T07:23:00;98725.47;;;15.68;58.70
69184;BME280;56291;53.960;27.550;2023-09-19T07:25:27;98728.38;;;15.73;58.93
69184;BME280;56291;53.960;27.550;2023-09-19T07:27:56;98733.97;;;15.79;58.66
69184;BME280;56291;53.960;27.550;2023-09-19T07:30:22;98726.13;;;15.85;58.70
69184;BME280;56291;53.960;27.550;2023-09-19T07:32:49;98725.09;;;15.86;58.79
69184;BME280;56291;53.960;27.550;2023-09-19T07:35:15;98728.03;;;15.91;58.65
69184;BME280;56291;53.960;27.550;2023-09-19T07:37:42;98730.97;;;15.97;58.33
69184;BME280;56291;53.960;27.550;2023-09-19T07:40:08;98717.69;;;15.97;58.71
69184;BME280;56291;53.960;27.550;2023-09-19T07:42:36;98723.44;;;16.00;58.78
69184;BME280;56291;53.960;27.550;2023-09-19T07:45:05;98720.88;;;16.07;58.62
69184;BME280;56291;53.960;27.550;2023-09-19T07:47:31;98711.81;;;16.16;58.69
69184;BME280;56291;53.960;27.550;2023-09-19T07:49:59;98708.50;;;16.14;58.38
69184;BME280;56291;53.960;27.550;2023-09-19T07:52:28;98707.13;;;16.18;58.60
69184;BME280;56291;53.960;27.550;2023-09-19T07:54:55;98702.34;;;16.29;58.49
69184;BME280;56291;53.960;27.550;2023-09-19T07:57:23;98685.66;;;16.35;58.05
69184;BME280;56291;53.960;27.550;2023-09-19T07:59:52;98688.38;;;16.41;57.98
69184;BME280;56291;53.960;27.550;2023-09-19T08:02:20;98687.34;;;16.42;57.88
69184;BME280;56291;53.960;27.550;2023-09-19T08:04:47;98680.28;;;16.50;58.09
69184;BME280;56291;53.960;27.550;2023-09-19T08:07:13;98672.38;;;16.56;57.51
69184;BME280;56291;53.960;27.550;2023-09-19T08:09:40;98672.44;;;16.63;57.93
69184;BME280;56291;53.960;27.550;2023-09-19T08:12:09;98672.50;;;16.70;57.97
69184;BME280;56291;53.960;27.550;2023-09-19T08:14:38;98666.72;;;16.88;57.72
69184;BME280;56291;53.960;27.550;2023-09-19T08:17:10;98664.97;;;16.95;57.82
69184;BME280;56291;53.960;27.550;2023-09-19T08:19:36;98668.94;;;17.06;57.62
69184;BME280;56291;53.960;27.550;2023-09-19T08:22:02;98672.88;;;17.17;57.46
69184;BME280;56291;53.960;27.550;2023-09-19T08:24:29;98660.47;;;17.30;56.57
69184;BME280;56291;53.960;27.550;2023-09-19T08:26:56;98660.56;;;17.44;56.76
69184;BME280;56291;53.960;27.550;2023-09-19T08:29:23;98663.44;;;17.49;56.58
69184;BME280;56291;53.960;27.550;2023-09-19T08:31:57;98656.94;;;17.58;56.39
69184;BME280;56291;53.960;27.550;2023-09-19T08:34:24;98650.28;;;17.76;56.75
69184;BME280;56291;53.960;27.550;2023-09-19T08:36:51;98657.50;;;17.89;56.32
69184;BME280;56291;53.960;27.550;2023-09-19T08:39:19;98654.31;;;18.07;56.17
69184;BME280;56291;53.960;27.550;2023-09-19T08:41:45;98643.28;;;18.17;55.68
69184;BME280;56291;53.960;27.550;2023-09-19T08:44:11;98646.56;;;18.32;55.90
69184;BME280;56291;53.960;27.550;2023-09-19T08:46:43;98644.53;;;18.41;55.72
69184;BME280;56291;53.960;27.550;2023-09-19T08:49:21;98634.09;;;18.59;55.05
69184;BME280;56291;53.960;27.550;2023-09-19T08:52:01;98635.13;;;18.78;55.44
69184;BME280;56291;53.960;27.550;2023-09-19T08:54:37;98638.22;;;18.95;54.42
69184;BME280;56291;53.960;27.550;2023-09-19T08:57:07;98630.59;;;19.06;54.49
69184;BME280;56291;53.960;27.550;2023-09-19T08:59:48;98628.94;;;19.18;54.99
69184;BME280;56291;53.960;27.550;2023-09-19T09:02:16;98628.50;;;19.34;54.76
69184;BME280;56291;53.960;27.550;2023-09-19T09:04:46;98620.22;;;19.49;53.01
69184;BME280;56291;53.960;27.550;2023-09-19T09:07:13;98626.31;;;19.63;54.78
69184;BME280;56291;53.960;27.550;2023-09-19T09:09:40;98616.19;;;19.79;52.90
69184;BME280;56291;53.960;27.550;2023-09-19T09:12:14;98622.72;;;19.96;55.14
69184;BME280;56291;53.960;27.550;2023-09-19T09:14:45;98626.91;;;20.17;52.71
69184;BME280;56291;53.960;27.550;2023-09-19T09:17:14;98617.97;;;20.30;53.95
69184;BME280;56291;53.960;27.550;2023-09-19T09:19:41;98620.13;;;20.47;52.63
69184;BME280;56291;53.960;27.550;2023-09-19T09:22:12;98614.09;;;20.58;49.72
69184;BME280;56291;53.960;27.550;2023-09-19T09:24:58;98616.66;;;20.71;52.06
69184;BME280;56291;53.960;27.550;2023-09-19T09:27:27;98599.03;;;20.89;50.14
69184;BME280;56291;53.960;27.550;2023-09-19T09:29:53;98603.94;;;21.11;48.79
69184;BME280;56291;53.960;27.550;2023-09-19T09:32:30;98609.22;;;21.17;48.69
69184;BME280;56291;53.960;27.550;2023-09-19T09:35:01;98602.31;;;21.28;49.78
69184;BME280;56291;53.960;27.550;2023-09-19T09:37:28;98603.34;;;21.46;49.91
69184;BME280;56291;53.960;27.550;2023-09-19T09:39:57;98601.28;;;21.66;50.05
69184;BME280;56291;53.960;27.550;2023-09-19T09:42:32;98594.94;;;21.79;48.43
69184;BME280;56291;53.960;27.550;2023-09-19T09:45:20;98587.22;;;22.01;48.15
69184;BME280;56291;53.960;27.550;2023-09-19T09:48:02;98592.59;;;22.13;47.61
69184;BME280;56291;53.960;27.550;2023-09-19T09:50:47;98587.59;;;22.29;46.62
69184;BME280;56291;53.960;27.550;2023-09-19T09:53:26;98574.28;;;22.40;45.63
69184;BME280;56291;53.960;27.550;2023-09-19T09:58:49;98577.78;;;22.76;46.67
69184;BME280;56291;53.960;27.550;2023-09-19T10:01:15;98570.41;;;22.96;48.74
69184;BME280;56291;53.960;27.550;2023-09-19T10:03:44;98578.34;;;22.90;47.24
69184;BME280;56291;53.960;27.550;2023-09-19T10:06:12;98576.47;;;23.03;45.09
69184;BME280;56291;53.960;27.550;2023-09-19T10:09:09;98563.84;;;23.27;45.01
69184;BME280;56291;53.960;27.550;2023-09-19T10:11:44;98567.31;;;23.51;43.43
69184;BME280;56291;53.960;27.550;2023-09-19T10:14:12;98567.13;;;23.58;47.02
69184;BME280;56291;53.960;27.550;2023-09-19T10:16:50;98571.25;;;23.77;44.05
69184;BME280;56291;53.960;27.550;2023-09-19T10:19:30;98564.91;;;23.95;47.57
69184;BME280;56291;53.960;27.550;2023-09-19T10:22:02;98562.72;;;24.09;41.55
69184;BME280;56291;53.960;27.550;2023-09-19T10:24:31;98565.25;;;24.16;43.16
69184;BME280;56291;53.960;27.550;2023-09-19T10:27:00;98562.44;;;24.23;43.71
69184;BME280;56291;53.960;27.550;2023-09-19T10:29:28;98551.44;;;24.24;41.72
69184;BME280;56291;53.960;27.550;2023-09-19T10:31:58;98550.88;;;24.39;45.12
69184;BME280;56291;53.960;27.550;2023-09-19T10:34:26;98554.75;;;24.49;41.37
69184;BME280;56291;53.960;27.550;2023-09-19T10:36:53;98551.66;;;24.57;41.58
69184;BME280;56291;53.960;27.550;2023-09-19T10:39:20;98541.69;;;24.74;43.05
69184;BME280;56291;53.960;27.550;2023-09-19T10:41:55;98543.72;;;24.84;41.21
69184;BME280;56291;53.960;27.550;2023-09-19T10:44:25;98537.09;;;24.92;40.27
69184;BME280;56291;53.960;27.550;2023-09-19T10:46:52;98536.25;;;25.08;42.34
69184;BME280;56291;53.960;27.550;2023-09-19T10:49:22;98541.19;;;25.39;40.97
69184;BME280;56291;53.960;27.550;2023-09-19T10:51:53;98539.59;;;25.38;43.48
69184;BME280;56291;53.960;27.550;2023-09-19T10:54:33;98540.81;;;25.52;43.38
69184;BME280;56291;53.960;27.550;2023-09-19T10:57:03;98542.38;;;25.75;42.58
69184;BME280;56291;53.960;27.550;2023-09-19T10:59:31;98532.19;;;25.77;41.33
69184;BME280;56291;53.960;27.550;2023-09-19T11:02:18;98530.66;;;25.87;42.68
69184;BME280;56291;53.960;27.550;2023-09-19T11:04:45;98536.50;;;26.06;44.32
69184;BME280;56291;53.960;27.550;2023-09-19T11:07:14;98535.44;;;26.07;42.54
69184;BME280;56291;53.960;27.550;2023-09-19T11:09:49;98536.59;;;26.16;40.18
69184;BME280;56291;53.960;27.550;2023-09-19T11:15:06;98539.41;;;26.31;38.05
69184;BME280;56291;53.960;27.550;2023-09-19T11:17:43;98532.41;;;26.30;38.89
69184;BME280;56291;53.960;27.550;2023-09-19T11:30:36;98518.81;;;26.53;37.27
69184;BME280;56291;53.960;27.550;2023-09-19T11:46:33;98503.88;;;26.88;37.59
69184;BME280;56291;53.960;27.550;2023-09-19T11:49:07;98495.78;;;26.88;33.94
69184;BME280;56291;53.960;27.550;2023-09-19T11:51:43;98488.63;;;27.09;36.21
69184;BME280;56291;53.960;27.550;2023-09-19T11:54:14;98503.72;;;27.05;36.74
69184;BME280;56291;53.960;27.550;2023-09-19T11:56:44;98496.44;;;27.15;34.69
69184;BME280;56291;53.960;27.550;2023-09-19T11:59:12;98492.44;;;27.28;36.60
69184;BME280;56291;53.960;27.550;2023-09-19T12:01:52;98501.91;;;27.26;37.15
69184;BME280;56291;53.960;27.550;2023-09-19T12:04:41;98488.50;;;27.57;37.75
69184;BME280;56291;53.960;27.550;2023-09-19T12:07:10;98496.06;;;27.70;35.80
69184;BME280;56291;53.960;27.550;2023-09-19T12:09:41;98498.53;;;27.97;36.07
69184;BME280;56291;53.960;27.550;2023-09-19T12:12:10;98488.50;;;27.93;33.24
69184;BME280;56291;53.960;27.550;2023-09-19T12:14:48;98489.09;;;28.00;36.06
69184;BME280;56291;53.960;27.550;2023-09-19T12:17:15;98484.22;;;28.07;34.07
69184;BME280;56291;53.960;27.550;2023-09-19T12:19:53;98488.25;;;27.99;34.49
69184;BME280;56291;53.960;27.550;2023-09-19T12:22:20;98486.91;;;28.12;34.68
69184;BME280;56291;53.960;27.550;2023-09-19T12:24:47;98479.31;;;28.19;36.02
69184;BME280;56291;53.960;27.550;2023-09-19T12:27:14;98480.13;;;28.35;32.95
69184;BME280;56291;53.960;27.550;2023-09-19T12:29:44;98483.38;;;28.32;36.95
69184;BME280;56291;53.960;27.550;2023-09-19T12:32:11;98472.84;;;28.20;34.41
69184;BME280;56291;53.960;27.550;2023-09-19T12:34:38;98481.22;;;28.24;33.60
69184;BME280;56291;53.960;27.550;2023-09-19T12:39:52;98475.75;;;28.45;33.48
69184;BME280;56291;53.960;27.550;2023-09-19T12:42:21;98471.47;;;28.23;32.94
69184;BME280;56291;53.960;27.550;2023-09-19T12:44:52;98474.44;;;28.32;34.90
69184;BME280;56291;53.960;27.550;2023-09-19T12:47:23;98472.81;;;28.41;36.02
69184;BME280;56291;53.960;27.550;2023-09-19T12:52:53;98474.75;;;28.20;34.38
69184;BME280;56291;53.960;27.550;2023-09-19T12:55:31;98470.13;;;28.26;35.55
69184;BME280;56291;53.960;27.550;2023-09-19T12:58:14;98463.09;;;28.35;33.64
69184;BME280;56291;53.960;27.550;2023-09-19T13:00:46;98459.28;;;28.36;36.35
69184;BME280;56291;53.960;27.550;2023-09-19T13:03:16;98469.81;;;28.48;37.26
69184;BME280;56291;53.960;27.550;2023-09-19T13:05:56;98461.72;;;28.48;34.71
69184;BME280;56291;53.960;27.550;2023-09-19T13:08:39;98464.38;;;28.58;34.62
69184;BME280;56291;53.960;27.550;2023-09-19T13:11:14;98467.34;;;28.67;33.62
69184;BME280;56291;53.960;27.550;2023-09-19T13:19:47;98464.44;;;28.32;34.77
69184;BME280;56291;53.960;27.550;2023-09-19T13:22:39;98453.78;;;28.77;35.20
69184;BME280;56291;53.960;27.550;2023-09-19T13:25:10;98445.97;;;28.70;35.80
69184;BME280;56291;53.960;27.550;2023-09-19T13:27:41;98447.75;;;28.91;36.27
69184;BME280;56291;53.960;27.550;2023-09-19T13:30:08;98446.59;;;29.07;36.48
69184;BME280;56291;53.960;27.550;2023-09-19T13:32:34;98456.03;;;29.15;34.98
69184;BME280;56291;53.960;27.550;2023-09-19T13:35:01;98447.38;;;29.18;35.95
69184;BME280;56291;53.960;27.550;2023-09-19T13:37:27;98450.59;;;29.25;35.93
69184;BME280;56291;53.960;27.550;2023-09-19T13:39:53;98451.56;;;28.89;32.92
69184;BME280;56291;53.960;27.550;2023-09-19T13:42:19;98452.38;;;28.90;36.33
69184;BME280;56291;53.960;27.550;2023-09-19T13:44:47;98446.59;;;29.12;36.09
69184;BME280;56291;53.960;27.550;2023-09-19T13:47:14;98449.59;;;29.05;34.16
69184;BME280;56291;53.960;27.550;2023-09-19T13:49:41;98451.38;;;29.20;34.47
69184;BME280;56291;53.960;27.550;2023-09-19T13:52:09;98444.94;;;29.16;34.48
69184;BME280;56291;53.960;27.550;2023-09-19T13:54:35;98459.00;;;29.18;34.69
69184;BME280;56291;53.960;27.550;2023-09-19T13:57:01;98446.31;;;29.14;33.97
69184;BME280;56291;53.960;27.550;2023-09-19T13:59:27;98457.91;;;29.25;34.63
69184;BME280;56291;53.960;27.550;2023-09-19T14:01:54;98454.28;;;29.39;35.54
69184;BME280;56291;53.960;27.550;2023-09-19T14:04:21;98448.31;;;29.43;35.00
69184;BME280;56291;53.960;27.550;2023-09-19T14:06:48;98439.47;;;29.27;34.66
69184;BME280;56291;53.960;27.550;2023-09-19T14:09:14;98439.69;;;29.35;35.61
69184;BME280;56291;53.960;27.550;2023-09-19T14:11:46;98441.06;;;29.33;33.30
69184;BME280;56291;53.960;27.550;2023-09-19T14:14:13;98443.59;;;29.14;34.45
69184;BME280;56291;53.960;27.550;2023-09-19T14:16:41;98441.69;;;29.14;34.98
69184;BME280;56291;53.960;27.550;2023-09-19T14:19:08;98439.00;;;29.09;34.43
69184;BME280;56291;53.960;27.550;2023-09-19T14:21:34;98440.66;;;29.05;33.75
69184;BME280;56291;53.960;27.550;2023-09-19T14:24:02;98439.53;;;29.11;35.11
69184;BME280;56291;53.960;27.550;2023-09-19T14:26:29;98434.34;;;29.15;34.82
69184;BME280;56291;53.960;27.550;2023-09-19T14:28:55;98430.63;;;29.05;35.47
69184;BME280;56291;53.960;27.550;2023-09-19T14:31:21;98431.78;;;28.94;34.59
69184;BME280;56291;53.960;27.550;2023-09-19T14:33:54;98427.44;;;28.93;34.82
69184;BME280;56291;53.960;27.550;2023-09-19T14:36:22;98424.53;;;28.84;34.88
69184;BME280;56291;53.960;27.550;2023-09-19T14:38:51;98418.91;;;28.65;34.19
69184;BME280;56291;53.960;27.550;2023-09-19T14:41:19;98425.63;;;28.78;35.62
69184;BME280;56291;53.960;27.550;2023-09-19T14:43:45;98427.56;;;28.67;35.51
69184;BME280;56291;53.960;27.550;2023-09-19T14:46:12;98426.75;;;28.67;35.17
69184;BME280;56291;53.960;27.550;2023-09-19T14:48:40;98425.31;;;28.85;36.29
69184;BME280;56291;53.960;27.550;2023-09-19T14:51:07;98420.00;;;28.49;34.67
69184;BME280;56291;53.960;27.550;2023-09-19T14:53:38;98412.69;;;28.65;36.56
69184;BME280;56291;53.960;27.550;2023-09-19T14:56:13;98421.59;;;28.76;35.91
69184;BME280;56291;53.960;27.550;2023-09-19T14:58:47;98424.66;;;28.28;35.15
69184;BME280;56291;53.960;27.550;2023-09-19T15:01:13;98427.72;;;28.06;36.21
69184;BME280;56291;53.960;27.550;2023-09-19T15:03:41;98421.72;;;28.14;36.38
69184;BME280;56291;53.960;27.550;2023-09-19T15:06:09;98430.66;;;27.94;36.09
69184;BME280;56291;53.960;27.550;2023-09-19T15:08:38;98428.50;;;27.85;36.70
69184;BME280;56291;53.960;27.550;2023-09-19T15:11:05;98421.72;;;27.83;37.07
69184;BME280;56291;53.960;27.550;2023-09-19T15:13:35;98432.56;;;27.78;36.98
69184;BME280;56291;53.960;27.550;2023-09-19T15:16:02;98425.81;;;27.60;37.33
69184;BME280;56291;53.960;27.550;2023-09-19T15:18:30;98429.56;;;27.59;37.53
69184;BME280;56291;53.960;27.550;2023-09-19T15:20:57;98432.25;;;27.38;37.88
69184;BME280;56291;53.960;27.550;2023-09-19T15:23:23;98431.66;;;27.31;37.84
69184;BME280;56291;53.960;27.550;2023-09-19T15:25:50;98424.06;;;27.07;37.59
69184;BME280;56291;53.960;27.550;2023-09-19T15:28:16;98431.56;;;26.90;37.73
69184;BME280;56291;53.960;27.550;2023-09-19T15:30:43;98433.75;;;26.93;38.29
69184;BME280;56291;53.960;27.550;2023-09-19T15:33:09;98432.75;;;26.56;38.24
69184;BME280;56291;53.960;27.550;2023-09-19T15:35:36;98430.91;;;26.62;39.00
69184;BME280;56291;53.960;27.550;2023-09-19T15:38:03;98435.16;;;26.47;38.04
69184;BME280;56291;53.960;27.550;2023-09-19T15:40:29;98442.41;;;26.42;39.09
69184;BME280;56291;53.960;27.550;2023-09-19T15:42:56;98430.97;;;26.24;39.23
69184;BME280;56291;53.960;27.550;2023-09-19T15:45:23;98429.13;;;25.92;38.95
69184;BME280;56291;53.960;27.550;2023-09-19T15:47:49;98437.41;;;25.86;39.75
69184;BME280;56291;53.960;27.550;2023-09-19T15:50:15;98432.75;;;25.76;39.41
69184;BME280;56291;53.960;27.550;2023-09-19T15:52:42;98440.00;;;25.75;40.05
69184;BME280;56291;53.960;27.550;2023-09-19T15:55:09;98444.41;;;25.54;39.15
69184;BME280;56291;53.960;27.550;2023-09-19T15:57:39;98451.03;;;25.41;40.62
69184;BME280;56291;53.960;27.550;2023-09-19T16:00:06;98447.59;;;25.24;40.29
69184;BME280;56291;53.960;27.550;2023-09-19T16:02:39;98449.63;;;25.11;40.16
69184;BME280;56291;53.960;27.550;2023-09-19T16:05:06;98453.69;;;25.14;40.30
69184;BME280;56291;53.960;27.550;2023-09-19T16:07:32;98452.13;;;24.96;40.62
69184;BME280;56291;53.960;27.550;2023-09-19T16:10:02;98453.97;;;24.90;39.98
69184;BME280;56291;53.960;27.550;2023-09-19T16:12:29;98456.47;;;24.75;41.28
69184;BME280;56291;53.960;27.550;2023-09-19T16:14:56;98459.72;;;24.60;41.62
69184;BME280;56291;53.960;27.550;2023-09-19T16:17:22;98458.59;;;24.56;41.04
69184;BME280;56291;53.960;27.550;2023-09-19T16:19:48;98459.50;;;24.44;41.02
69184;BME280;56291;53.960;27.550;2023-09-19T16:22:15;98457.56;;;24.40;41.79
69184;BME280;56291;53.960;27.550;2023-09-19T16:24:41;98449.88;;;24.09;41.30
69184;BME280;56291;53.960;27.550;2023-09-19T16:27:09;98453.59;;;24.08;42.30
69184;BME280;56291;53.960;27.550;2023-09-19T16:29:35;98451.16;;;24.07;42.04
69184;BME280;56291;53.960;27.550;2023-09-19T16:32:01;98450.94;;;23.91;41.96
69184;BME280;56291;53.960;27.550;2023-09-19T16:34:27;98468.50;;;23.82;42.54
69184;BME280;56291;53.960;27.550;2023-09-19T16:36:54;98466.84;;;23.64;42.66
69184;BME280;56291;53.960;27.550;2023-09-19T16:39:20;98465.81;;;23.65;42.32
69184;BME280;56291;53.960;27.550;2023-09-19T16:41:48;98472.59;;;23.56;42.60
69184;BME280;56291;53.960;27.550;2023-09-19T16:44:14;98474.38;;;23.50;42.99
69184;BME280;56291;53.960;27.550;2023-09-19T16:46:41;98466.63;;;23.37;43.27
69184;BME280;56291;53.960;27.550;2023-09-19T16:49:09;98465.31;;;23.10;43.76
69184;BME280;56291;53.960;27.550;2023-09-19T16:51:38;98469.28;;;23.08;43.76
69184;BME280;56291;53.960;27.550;2023-09-19T16:54:06;98471.38;;;23.06;43.83
69184;BME280;56291;53.960;27.550;2023-09-19T16:56:32;98474.78;;;23.01;43.97
69184;BME280;56291;53.960;27.550;2023-09-19T16:59:02;98475.97;;;22.93;43.83
69184;BME280;56291;53.960;27.550;2023-09-19T17:01:30;98470.75;;;22.75;44.68
69184;BME280;56291;53.960;27.550;2023-09-19T17:03:58;98476.13;;;22.75;44.59
69184;BME280;56291;53.960;27.550;2023-09-19T17:06:25;98479.03;;;22.73;44.43
69184;BME280;56291;53.960;27.550;2023-09-19T17:08:52;98480.31;;;22.71;44.28
69184;BME280;56291;53.960;27.550;2023-09-19T17:11:18;98479.66;;;22.52;44.64
69184;BME280;56291;53.960;27.550;2023-09-19T17:13:46;98480.13;;;22.49;45.34
69184;BME280;56291;53.960;27.550;2023-09-19T17:16:14;98480.00;;;22.44;44.58
69184;BME280;56291;53.960;27.550;2023-09-19T17:18:46;98482.66;;;22.32;44.84
69184;BME280;56291;53.960;27.550;2023-09-19T17:21:15;98481.94;;;22.24;44.95
69184;BME280;56291;53.960;27.550;2023-09-19T17:23:42;98483.81;;;22.12;45.75
69184;BME280;56291;53.960;27.550;2023-09-19T17:26:12;98486.00;;;22.03;45.77
69184;BME280;56291;53.960;27.550;2023-09-19T17:28:49;98481.47;;;22.04;46.53
69184;BME280;56291;53.960;27.550;2023-09-19T17:31:17;98479.69;;;21.86;46.07
69184;BME280;56291;53.960;27.550;2023-09-19T17:33:46;98486.31;;;21.83;45.69
69184;BME280;56291;53.960;27.550;2023-09-19T17:36:17;98489.09;;;21.77;47.27
69184;BME280;56291;53.960;27.550;2023-09-19T17:38:45;98487.81;;;21.79;45.77
69184;BME280;56291;53.960;27.550;2023-09-19T17:41:12;98494.69;;;21.75;45.45
69184;BME280;56291;53.960;27.550;2023-09-19T17:43:39;98496.03;;;21.54;46.60
69184;BME280;56291;53.960;27.550;2023-09-19T17:46:09;98487.66;;;21.62;45.82
69184;BME280;56291;53.960;27.550;2023-09-19T17:48:37;98506.72;;;21.54;46.24
69184;BME280;56291;53.960;27.550;2023-09-19T17:51:03;98494.81;;;21.50;46.22
69184;BME280;56291;53.960;27.550;2023-09-19T17:53:30;98497.94;;;21.47;46.35
69184;BME280;56291;53.960;27.550;2023-09-19T17:55:56;98499.22;;;21.44;46.31
69184;BME280;56291;53.960;27.550;2023-09-19T17:58:23;98497.69;;;21.36;46.58
69184;BME280;56291;53.960;27.550;2023-09-19T18:00:49;98497.31;;;21.33;46.59
69184;BME280;56291;53.960;27.550;2023-09-19T18:03:15;98498.78;;;21.29;46.49
69184;BME280;56291;53.960;27.550;2023-09-19T18:05:45;98493.91;;;21.26;47.80
69184;BME280;56291;53.960;27.550;2023-09-19T18:08:11;98499.56;;;21.17;47.82
69184;BME280;56291;53.960;27.550;2023-09-19T18:10:40;98494.06;;;21.12;47.31
69184;BME280;56291;53.960;27.550;2023-09-19T18:13:06;98498.31;;;21.01;47.82
69184;BME280;56291;53.960;27.550;2023-09-19T18:15:36;98498.91;;;21.03;47.36
69184;BME280;56291;53.960;27.550;2023-09-19T18:18:06;98501.41;;;20.98;48.14
69184;BME280;56291;53.960;27.550;2023-09-19T18:20:38;98503.97;;;20.93;47.52
69184;BME280;56291;53.960;27.550;2023-09-19T18:23:07;98499.19;;;20.95;47.46
69184;BME280;56291;53.960;27.550;2023-09-19T18:25:34;98497.44;;;20.89;47.37
69184;BME280;56291;53.960;27.550;2023-09-19T18:28:01;98505.06;;;20.85;47.74
69184;BME280;56291;53.960;27.550;2023-09-19T18:30:30;98505.69;;;20.87;47.45
69184;BME280;56291;53.960;27.550;2023-09-19T18:32:59;98497.72;;;20.81;48.52
69184;BME280;56291;53.960;27.550;2023-09-19T18:35:25;98496.38;;;20.71;48.31
69184;BME280;56291;53.960;27.550;2023-09-19T18:37:55;98496.97;;;20.74;47.94
